Time;durP1;ratioP1;P1;durP2;ratioP2;P2;SDS_P1;SDS_P2;PMS_P1;PMS_P2;Temp;Humidity;BMP_temperature;BMP_pressure;BME280_temperature;BME280_humidity;BME280_pressure;Samples;Min_cycle;Max_cycle;Signal;HPM_P1;HPM_P2
2022/08/07 00:01:38;;;;;;;8.67;8.03;;;;;;;27.58;67.29;99060.56;5073478;28;20199;-76
2022/08/07 00:04:06;;;;;;;8.27;7.60;;;;;;;27.51;66.97;99074.66;5072708;28;20198;-76
2022/08/07 00:06:32;;;;;;;8.87;8.37;;;;;;;27.53;66.88;99079.81;5072859;28;20281;-75
2022/08/07 00:08:59;;;;;;;8.37;7.67;;;;;;;27.54;66.23;99073.22;5072745;28;20628;-75
2022/08/07 00:11:26;;;;;;;7.50;7.00;;;;;;;27.64;66.40;99067.50;5072842;28;20192;-75
2022/08/07 00:13:54;;;;;;;9.37;7.60;;;;;;;27.65;66.30;99067.16;5073048;28;20211;-75
2022/08/07 00:16:21;;;;;;;8.10;7.50;;;;;;;27.65;66.50;99064.41;5073328;28;20253;-75
2022/08/07 00:18:47;;;;;;;7.23;6.77;;;;;;;27.72;66.03;99069.44;5072678;28;20196;-75
2022/08/07 00:21:14;;;;;;;8.10;7.27;;;;;;;27.77;65.49;99069.28;5072405;28;20200;-76
2022/08/07 00:23:41;;;;;;;8.13;7.40;;;;;;;27.81;65.23;99068.34;5072382;28;20188;-76
2022/08/07 00:26:10;;;;;;;8.00;7.40;;;;;;;27.78;65.78;99062.69;5072340;28;20272;-76
2022/08/07 00:28:37;;;;;;;7.30;6.87;;;;;;;27.73;65.87;99062.84;5072378;28;20250;-76
2022/08/07 00:31:10;;;;;;;8.17;7.57;;;;;;;27.74;65.27;99067.19;5072544;28;20200;-76
2022/08/07 00:33:38;;;;;;;8.13;7.50;;;;;;;27.68;64.70;99065.72;5072412;28;20249;-76
2022/08/07 00:36:06;;;;;;;8.17;7.00;;;;;;;27.68;64.91;99063.00;5072323;28;20253;-76
2022/08/07 00:38:35;;;;;;;8.17;7.40;;;;;;;27.55;65.15;99053.81;5072514;28;20200;-76
2022/08/07 00:41:03;;;;;;;7.60;6.57;;;;;;;27.43;65.89;99056.34;5072482;28;20223;-76
2022/08/07 00:43:30;;;;;;;7.50;6.80;;;;;;;27.53;65.50;99061.53;5072415;28;20245;-75
2022/08/07 00:45:57;;;;;;;7.70;7.10;;;;;;;27.54;65.78;99057.66;5072178;28;20592;-75
2022/08/07 00:48:25;;;;;;;7.67;6.33;;;;;;;27.57;65.17;99057.00;5072405;28;20195;-75
2022/08/07 00:50:52;;;;;;;7.13;6.73;;;;;;;27.52;65.39;99070.81;5072896;28;20188;-75
2022/08/07 00:53:19;;;;;;;7.10;6.50;;;;;;;27.56;65.01;99060.09;5072037;28;20196;-76
2022/08/07 00:55:46;;;;;;;6.93;6.50;;;;;;;27.52;64.63;99059.09;5072909;28;20624;-76
2022/08/07 00:58:12;;;;;;;8.83;7.20;;;;;;;27.41;65.43;99053.13;5072829;28;20305;-76
2022/08/07 01:00:39;;;;;;;6.40;6.00;;;;;;;27.51;65.19;99073.84;5072143;28;20337;-75
2022/08/07 01:03:06;;;;;;;7.17;6.40;;;;;;;27.52;65.27;99067.28;5071417;28;20249;-76
2022/08/07 01:05:35;;;;;;;8.00;7.40;;;;;;;27.44;65.29;99063.41;5072272;28;20578;-76
2022/08/07 01:08:02;;;;;;;6.60;6.20;;;;;;;27.39;65.53;99076.38;5072099;28;20732;-77
2022/08/07 01:10:29;;;;;;;8.10;7.40;;;;;;;27.31;66.11;99069.78;5072427;28;20200;-77
2022/08/07 01:12:56;;;;;;;8.80;8.13;;;;;;;27.17;66.66;99081.88;5071824;28;20196;-76
2022/08/07 01:15:24;;;;;;;8.17;7.63;;;;;;;27.04;67.17;99074.59;5071886;28;20241;-76
2022/08/07 01:17:51;;;;;;;8.00;7.20;;;;;;;27.09;66.58;99071.72;5072313;28;20192;-76
2022/08/07 01:20:26;;;;;;;9.13;8.33;;;;;;;27.10;66.10;99067.88;5071843;28;20254;-76
2022/08/07 01:22:55;;;;;;;10.40;7.17;;;;;;;27.10;66.65;99057.78;5071817;28;20217;-76
2022/08/07 01:25:21;;;;;;;8.10;7.40;;;;;;;27.21;66.03;99061.06;5071757;28;20253;-76
2022/08/07 01:27:49;;;;;;;7.73;7.23;;;;;;;27.28;65.72;99066.88;5071971;28;20209;-75
2022/08/07 01:30:17;;;;;;;8.63;7.87;;;;;;;27.32;65.60;99059.69;5071935;28;20223;-74
2022/08/07 01:32:44;;;;;;;8.43;7.73;;;;;;;27.37;65.44;99068.53;5072467;28;20196;-75
2022/08/07 01:35:11;;;;;;;7.07;6.67;;;;;;;27.41;65.13;99060.50;5072355;28;20188;-75
2022/08/07 01:37:38;;;;;;;8.40;7.90;;;;;;;27.40;64.91;99056.97;5071510;28;20188;-75
2022/08/07 01:40:09;;;;;;;8.57;8.03;;;;;;;27.28;65.14;99053.25;5071622;28;20655;-76
2022/08/07 01:42:36;;;;;;;7.87;7.37;;;;;;;27.23;65.88;99047.94;5071689;28;20188;-76
2022/08/07 01:45:04;;;;;;;7.40;6.70;;;;;;;27.28;65.65;99058.69;5072822;28;20250;-75
2022/08/07 01:47:31;;;;;;;9.00;8.40;;;;;;;27.28;65.52;99053.25;5071546;28;20208;-76
2022/08/07 01:49:58;;;;;;;7.60;7.00;;;;;;;27.27;65.36;99055.16;5072464;28;20250;-75
2022/08/07 01:52:30;;;;;;;8.23;7.53;;;;;;;27.25;65.75;99045.69;5071600;28;20673;-75
2022/08/07 01:55:00;;;;;;;7.03;6.63;;;;;;;27.26;64.23;99053.56;5072211;28;20238;-75
2022/08/07 01:57:33;;;;;;;7.30;6.70;;;;;;;27.07;65.49;99055.69;5072152;28;20195;-76
2022/08/07 02:00:03;;;;;;;7.63;6.80;;;;;;;26.94;65.60;99053.03;5071630;28;20188;-76
2022/08/07 02:02:35;;;;;;;6.50;6.03;;;;;;;26.85;66.33;99044.00;5072135;28;20195;-76
2022/08/07 02:05:05;;;;;;;6.83;6.37;;;;;;;26.89;66.13;99047.72;5072120;28;20564;-75
2022/08/07 02:07:38;;;;;;;6.73;6.23;;;;;;;26.88;65.82;99052.41;5070955;28;20711;-75
2022/08/07 02:10:06;;;;;;;7.03;6.63;;;;;;;26.81;66.17;99048.47;5071622;28;20726;-75
2022/08/07 02:12:39;;;;;;;7.23;6.83;;;;;;;26.79;65.52;99050.72;5071669;28;20199;-75
2022/08/07 02:15:08;;;;;;;6.83;6.40;;;;;;;26.72;66.62;99048.44;5073031;28;20185;-74
2022/08/07 02:17:35;;;;;;;7.07;6.50;;;;;;;26.66;66.67;99052.41;5075295;28;20258;-74
2022/08/07 02:20:04;;;;;;;7.60;5.87;;;;;;;26.67;66.50;99048.59;5075585;28;20341;-74
2022/08/07 02:22:32;;;;;;;6.30;5.90;;;;;;;26.72;66.16;99055.81;5074965;28;20196;-73
2022/08/07 02:25:00;;;;;;;6.33;6.03;;;;;;;26.81;65.48;99043.03;5075216;28;20192;-74
2022/08/07 02:27:29;;;;;;;7.40;6.03;;;;;;;26.87;65.30;99053.47;5075653;28;20292;-74
2022/08/07 02:29:59;;;;;;;6.83;6.17;;;;;;;26.80;64.95;99047.69;5074855;28;20660;-75
2022/08/07 02:32:27;;;;;;;6.10;5.80;;;;;;;26.85;65.23;99044.81;5074851;28;20192;-75
2022/08/07 02:34:57;;;;;;;5.80;5.50;;;;;;;26.95;64.71;99043.75;5075012;28;20245;-75
2022/08/07 02:37:24;;;;;;;6.87;6.37;;;;;;;26.97;64.31;99038.78;5075804;28;20282;-75
2022/08/07 02:39:53;;;;;;;6.60;6.10;;;;;;;26.96;64.92;99048.91;5074666;28;20623;-75
2022/08/07 02:42:21;;;;;;;6.90;6.27;;;;;;;27.00;64.35;99051.81;5074631;28;20195;-75
2022/08/07 02:44:50;;;;;;;6.47;5.87;;;;;;;27.04;63.94;99047.31;5075139;28;20597;-75
2022/08/07 02:47:18;;;;;;;6.97;6.33;;;;;;;27.12;63.43;99049.28;5074772;28;20224;-75
2022/08/07 02:49:45;;;;;;;6.87;6.47;;;;;;;27.14;63.31;99050.59;5074482;28;20196;-75
2022/08/07 02:52:17;;;;;;;6.87;6.47;;;;;;;27.11;63.20;99047.69;5075040;28;20611;-74
2022/08/07 02:54:45;;;;;;;6.30;5.90;;;;;;;27.18;63.58;99053.47;5074683;28;20181;-75
2022/08/07 02:57:14;;;;;;;7.10;6.23;;;;;;;27.13;63.85;99056.34;5074612;28;20192;-75
2022/08/07 02:59:44;;;;;;;6.93;6.50;;;;;;;27.06;63.82;99055.97;5075192;28;20196;-76
2022/08/07 03:02:12;;;;;;;6.77;6.17;;;;;;;27.00;63.76;99055.34;5074927;28;20188;-75
2022/08/07 03:04:42;;;;;;;6.87;6.23;;;;;;;26.96;64.33;99056.28;5074107;28;20613;-75
2022/08/07 03:07:10;;;;;;;6.57;6.03;;;;;;;26.99;64.23;99052.94;5074590;28;20585;-76
2022/08/07 03:09:37;;;;;;;6.67;6.27;;;;;;;27.05;63.46;99054.38;5074063;28;20200;-76
2022/08/07 03:12:05;;;;;;;6.20;5.90;;;;;;;27.10;63.43;99059.69;5073990;28;20195;-75
2022/08/07 03:14:35;;;;;;;6.80;5.70;;;;;;;27.13;63.30;99050.91;5075073;28;20283;-75
2022/08/07 03:17:02;;;;;;;8.13;6.57;;;;;;;27.02;63.19;99049.56;5074226;28;20195;-75
2022/08/07 03:19:30;;;;;;;6.83;6.43;;;;;;;26.91;64.02;99056.41;5073878;28;20576;-74
2022/08/07 03:21:59;;;;;;;6.73;6.23;;;;;;;26.85;64.13;99057.66;5074191;28;20192;-73
2022/08/07 03:24:26;;;;;;;6.17;5.87;;;;;;;26.99;63.71;99070.06;5073792;28;20200;-74
2022/08/07 03:26:54;;;;;;;6.30;5.70;;;;;;;27.03;63.28;99060.16;5072943;28;20220;-74
2022/08/07 03:29:21;;;;;;;7.03;6.53;;;;;;;27.05;63.67;99066.09;5073734;28;20260;-74
2022/08/07 03:31:51;;;;;;;5.80;5.40;;;;;;;27.05;63.64;99068.03;5073434;28;20242;-74
2022/08/07 03:34:19;;;;;;;6.73;6.20;;;;;;;27.10;63.22;99073.31;5073418;28;20736;-75
2022/08/07 03:36:46;;;;;;;8.07;6.67;;;;;;;27.18;63.05;99076.09;5074727;28;20622;-75
2022/08/07 03:39:17;;;;;;;6.77;6.33;;;;;;;27.28;62.50;99072.34;5073549;28;20250;-76
2022/08/07 03:41:44;;;;;;;6.63;6.23;;;;;;;27.32;62.57;99071.38;5073584;28;20188;-76
2022/08/07 03:44:11;;;;;;;6.23;5.83;;;;;;;27.31;62.42;99077.19;5073268;28;20638;-76
2022/08/07 03:46:40;;;;;;;6.00;5.70;;;;;;;27.37;62.49;99081.34;5073606;28;20216;-76
2022/08/07 03:49:08;;;;;;;6.30;5.90;;;;;;;27.40;62.20;99083.47;5073382;28;20196;-75
2022/08/07 03:51:36;;;;;;;6.50;6.10;;;;;;;27.37;62.67;99073.97;5073584;28;20256;-74
2022/08/07 03:54:03;;;;;;;7.03;6.50;;;;;;;27.34;62.73;99077.34;5073991;28;20192;-74
2022/08/07 03:56:35;;;;;;;6.20;5.83;;;;;;;27.30;61.90;99067.34;5073349;28;20196;-73
2022/08/07 03:59:03;;;;;;;5.93;5.63;;;;;;;27.33;62.85;99077.66;5073553;28;20231;-74
2022/08/07 04:01:32;;;;;;;6.53;6.13;;;;;;;27.37;62.39;99081.34;5073040;28;20249;-74
2022/08/07 04:03:59;;;;;;;6.47;6.07;;;;;;;27.40;61.68;99072.53;5072973;28;20192;-74
2022/08/07 04:06:26;;;;;;;6.80;6.40;;;;;;;27.45;61.92;99075.13;5072910;28;20715;-74
2022/08/07 04:08:54;;;;;;;6.23;5.83;;;;;;;27.60;61.33;99085.63;5073450;28;20253;-74
2022/08/07 04:11:21;;;;;;;6.47;6.03;;;;;;;27.70;60.78;99082.59;5072922;28;20196;-77
2022/08/07 04:13:50;;;;;;;6.53;6.13;;;;;;;27.74;61.66;99073.44;5073099;28;20192;-77
2022/08/07 04:16:17;;;;;;;7.70;6.90;;;;;;;27.91;60.42;99083.63;5072876;28;20290;-76
2022/08/07 04:18:44;;;;;;;6.33;5.97;;;;;;;28.05;60.12;99078.84;5072638;28;20615;-76
2022/08/07 04:21:11;;;;;;;6.50;6.20;;;;;;;28.03;60.09;99086.53;5072615;28;20200;-76
2022/08/07 04:23:38;;;;;;;6.53;5.93;;;;;;;28.00;59.90;99076.25;5073146;28;20200;-76
2022/08/07 04:26:07;;;;;;;7.70;7.17;;;;;;;27.96;60.05;99078.00;5072552;28;20195;-76
2022/08/07 04:28:34;;;;;;;7.03;6.37;;;;;;;27.88;60.60;99081.50;5072324;28;20192;-75
2022/08/07 04:31:02;;;;;;;6.93;6.43;;;;;;;27.84;61.08;99081.38;5072599;28;20204;-75
2022/08/07 04:33:30;;;;;;;7.20;6.40;;;;;;;27.74;61.33;99069.91;5072368;28;20607;-76
2022/08/07 04:35:57;;;;;;;7.43;6.70;;;;;;;27.69;61.38;99078.25;5072311;28;20200;-75
2022/08/07 04:38:25;;;;;;;7.23;6.20;;;;;;;27.64;61.65;99083.88;5072367;28;20249;-76
2022/08/07 04:40:52;;;;;;;6.40;6.10;;;;;;;27.69;61.63;99080.97;5072361;28;20192;-75
2022/08/07 04:43:23;;;;;;;8.20;6.73;;;;;;;27.75;61.26;99079.69;5072065;28;20192;-74
2022/08/07 04:45:55;;;;;;;6.80;6.30;;;;;;;27.84;61.43;99081.38;5072763;28;20241;-75
2022/08/07 04:48:30;;;;;;;7.90;7.20;;;;;;;27.88;61.37;99081.50;5071968;28;20208;-75
2022/08/07 04:51:07;;;;;;;6.83;6.20;;;;;;;27.94;61.03;99091.19;5072686;28;20193;-75
2022/08/07 04:53:39;;;;;;;6.23;5.83;;;;;;;27.99;60.45;99096.47;5072339;28;20183;-75
2022/08/07 04:56:18;;;;;;;6.97;6.57;;;;;;;28.04;60.08;99101.78;5073072;28;20191;-77
2022/08/07 04:58:49;;;;;;;6.90;6.50;;;;;;;28.09;60.18;99098.94;5072099;28;20318;-76
2022/08/07 05:01:24;;;;;;;6.63;6.17;;;;;;;28.02;60.82;99096.63;5070005;28;20599;-76
2022/08/07 05:04:02;;;;;;;7.10;6.57;;;;;;;28.05;60.88;99100.69;5071438;28;20313;-76
2022/08/07 05:06:35;;;;;;;7.43;6.73;;;;;;;28.02;60.84;99109.50;5072231;28;20191;-76
2022/08/07 05:09:08;;;;;;;8.83;6.53;;;;;;;28.06;60.85;99105.03;5070534;28;20196;-77
2022/08/07 05:11:39;;;;;;;8.10;7.47;;;;;;;28.03;61.64;99100.19;5071035;28;20188;-76
2022/08/07 05:14:10;;;;;;;7.00;6.60;;;;;;;27.91;61.31;99100.81;5070684;28;20241;-75
2022/08/07 05:16:40;;;;;;;7.63;7.23;;;;;;;27.91;61.30;99110.94;5071776;28;20192;-76
2022/08/07 05:19:11;;;;;;;7.50;7.00;;;;;;;27.75;61.93;99109.72;5071695;28;20199;-76
2022/08/07 05:21:44;;;;;;;7.60;7.10;;;;;;;27.72;62.37;99113.13;5071479;28;20184;-76
2022/08/07 05:24:13;;;;;;;7.53;6.90;;;;;;;27.89;61.57;99113.97;5071459;28;20194;-76
2022/08/07 05:26:41;;;;;;;7.03;6.63;;;;;;;28.12;60.62;99115.47;5068788;28;20212;-76
2022/08/07 05:29:09;;;;;;;6.27;5.73;;;;;;;28.44;59.36;99119.69;5070835;28;20241;-77
2022/08/07 05:31:39;;;;;;;7.10;6.60;;;;;;;29.01;58.15;99118.38;5071465;28;20187;-77
2022/08/07 05:34:09;;;;;;;7.73;7.17;;;;;;;29.17;57.30;99123.03;5071783;28;20663;-78
2022/08/07 05:36:37;;;;;;;7.07;6.60;;;;;;;29.14;57.46;99125.59;5071746;28;20332;-78
2022/08/07 05:39:06;;;;;;;6.40;6.10;;;;;;;29.26;56.44;99136.66;5071618;28;20191;-79
2022/08/07 05:41:33;;;;;;;7.07;6.67;;;;;;;29.27;56.81;99143.72;5071770;28;20191;-78
2022/08/07 05:44:00;;;;;;;7.30;6.90;;;;;;;29.19;56.84;99136.34;5071563;28;20196;-79
2022/08/07 05:46:26;;;;;;;6.70;6.30;;;;;;;29.13;57.64;99137.66;5071809;28;20200;-73
2022/08/07 05:48:54;;;;;;;8.07;7.27;;;;;;;29.04;58.29;99125.94;5071901;28;20192;-75
2022/08/07 05:51:23;;;;;;;13.83;7.70;;;;;;;29.00;58.31;99133.19;5075423;28;20291;-75
2022/08/07 05:53:50;;;;;;;11.27;7.80;;;;;;;28.96;59.17;99137.69;5076026;28;20195;-74
2022/08/07 05:56:19;;;;;;;8.60;7.93;;;;;;;28.69;59.41;99135.28;5075233;28;20257;-75
2022/08/07 05:58:47;;;;;;;26.83;10.10;;;;;;;28.64;60.02;99146.38;5068713;28;20281;-81
2022/08/07 06:01:15;;;;;;;8.73;7.83;;;;;;;28.62;60.11;99151.34;5059554;28;20192;-81
2022/08/07 06:03:46;;;;;;;9.20;8.20;;;;;;;28.64;60.29;99144.47;5074013;28;20262;-81
2022/08/07 06:06:13;;;;;;;15.13;7.97;;;;;;;28.75;60.33;99147.69;5060337;28;20195;-82
2022/08/07 06:08:42;;;;;;;7.77;7.17;;;;;;;28.98;60.15;99144.41;5078041;28;20281;-83
2022/08/07 06:11:09;;;;;;;7.30;6.57;;;;;;;29.40;58.03;99153.69;5077100;28;20200;-85
2022/08/07 06:13:36;;;;;;;7.87;7.27;;;;;;;29.68;57.39;99160.34;5077354;28;20226;-82
2022/08/07 06:16:06;;;;;;;7.43;6.93;;;;;;;29.87;57.11;99157.22;5076685;28;20283;-83
2022/08/07 06:18:33;;;;;;;10.63;7.13;;;;;;;30.11;56.08;99163.69;5074684;28;20748;-83
2022/08/07 06:21:01;;;;;;;7.53;7.13;;;;;;;30.49;54.81;99164.41;5074821;28;20249;-83
2022/08/07 06:23:28;;;;;;;7.57;7.10;;;;;;;30.93;54.31;99169.25;5074846;28;20199;-81
2022/08/07 06:25:56;;;;;;;7.40;6.90;;;;;;;31.57;51.35;99178.63;5074283;28;20227;-82
2022/08/07 06:28:24;;;;;;;7.37;6.77;;;;;;;32.24;49.64;99170.63;5074900;28;20223;-81
2022/08/07 06:30:51;;;;;;;6.63;6.00;;;;;;;32.71;48.37;99171.69;5075391;28;20553;-81
2022/08/07 06:33:19;;;;;;;6.83;6.23;;;;;;;33.19;46.22;99165.19;5074703;28;20199;-81
2022/08/07 06:35:46;;;;;;;6.07;5.60;;;;;;;33.56;44.64;99171.31;5074735;28;20277;-79
2022/08/07 06:38:13;;;;;;;6.63;6.23;;;;;;;33.81;42.77;99176.31;5074415;28;20664;-78
2022/08/07 06:40:42;;;;;;;6.50;6.00;;;;;;;33.93;43.45;99173.50;5074407;28;20721;-78
2022/08/07 06:43:12;;;;;;;6.50;6.20;;;;;;;34.17;42.57;99169.72;5074273;28;20192;-78
2022/08/07 06:45:39;;;;;;;6.63;6.00;;;;;;;34.40;41.63;99170.66;5074334;28;20200;-77
2022/08/07 06:48:06;;;;;;;6.25;5.65;;;;;;;34.73;40.17;99170.97;5074838;28;20220;-74
2022/08/07 06:50:36;;;;;;;6.00;5.70;;;;;;;34.78;39.34;99165.97;5074524;28;20279;-77
2022/08/07 06:53:04;;;;;;;6.10;5.70;;;;;;;34.99;38.47;99168.41;5074307;28;20257;-75
2022/08/07 06:55:33;;;;;;;6.82;5.85;;;;;;;35.30;38.49;99173.75;5074496;28;20188;-76
2022/08/07 06:58:04;;;;;;;6.05;5.60;;;;;;;35.46;37.47;99169.72;5073806;28;20695;-75
2022/08/07 07:00:36;;;;;;;5.80;5.53;;;;;;;35.53;37.37;99174.56;5073543;28;20181;-77
2022/08/07 07:03:04;;;;;;;6.00;5.57;;;;;;;35.76;36.24;99170.66;5073563;28;20271;-76
2022/08/07 07:05:31;;;;;;;5.07;4.88;;;;;;;36.09;35.09;99172.78;5074281;28;20196;-75
2022/08/07 07:07:58;;;;;;;5.75;5.30;;;;;;;36.22;34.20;99166.66;5074715;28;20223;-73
2022/08/07 07:10:28;;;;;;;5.93;5.47;;;;;;;36.24;34.54;99169.88;5073775;28;20668;-73
2022/08/07 07:12:59;;;;;;;5.53;5.22;;;;;;;36.32;34.52;99176.31;5073818;28;20703;-75
2022/08/07 07:15:29;;;;;;;6.13;5.63;;;;;;;36.35;35.45;99181.09;5074473;28;20185;-75
2022/08/07 07:18:03;;;;;;;5.95;5.72;;;;;;;36.38;34.90;99174.81;5074049;28;20196;-74
2022/08/07 07:20:36;;;;;;;5.88;5.53;;;;;;;36.24;35.47;99177.38;5074275;28;20180;-74
2022/08/07 07:23:03;;;;;;;5.07;4.75;;;;;;;36.66;34.98;99172.44;5073649;28;20237;-75
2022/08/07 07:25:30;;;;;;;5.97;5.72;;;;;;;37.09;33.67;99171.81;5073654;28;20631;-75
2022/08/07 07:28:02;;;;;;;5.57;5.13;;;;;;;37.38;32.43;99173.72;5073479;28;20223;-75
2022/08/07 07:30:33;;;;;;;5.68;5.28;;;;;;;37.77;32.87;99168.56;5074648;28;20196;-74
2022/08/07 07:33:03;;;;;;;5.53;5.22;;;;;;;38.14;32.29;99181.19;5073777;28;20184;-75
2022/08/07 07:35:31;;;;;;;5.45;5.05;;;;;;;38.40;31.44;99174.59;5074528;28;20211;-75
2022/08/07 07:38:02;;;;;;;5.43;5.10;;;;;;;38.72;30.17;99181.94;5073830;28;20195;-74
2022/08/07 07:40:31;;;;;;;6.22;5.38;;;;;;;38.90;28.45;99182.84;5073402;28;20275;-75
2022/08/07 07:43:00;;;;;;;5.50;5.10;;;;;;;38.48;29.42;99179.03;5073170;28;20630;-75
2022/08/07 07:45:29;;;;;;;5.40;5.20;;;;;;;38.67;29.11;99179.56;5073018;28;20192;-74
2022/08/07 07:47:57;;;;;;;7.88;5.10;;;;;;;38.83;29.45;99190.31;5072925;28;20277;-75
2022/08/07 07:50:28;;;;;;;5.65;5.35;;;;;;;38.65;29.45;99187.47;5074100;28;20199;-74
2022/08/07 07:52:56;;;;;;;5.85;5.45;;;;;;;38.32;29.28;99186.84;5073092;28;20188;-74
2022/08/07 07:55:26;;;;;;;5.35;5.00;;;;;;;38.10;28.61;99185.91;5072752;28;20188;-74
2022/08/07 07:57:55;;;;;;;5.43;5.05;;;;;;;38.02;29.02;99181.47;5073168;28;20232;-74
2022/08/07 08:00:24;;;;;;;5.38;5.07;;;;;;;37.82;30.14;99180.13;5072782;28;20293;-74
2022/08/07 08:02:55;;;;;;;6.13;5.65;;;;;;;37.93;29.84;99181.00;5072679;28;20778;-74
2022/08/07 08:05:24;;;;;;;6.60;6.15;;;;;;;38.07;29.39;99189.44;5073066;28;20192;-74
2022/08/07 08:07:52;;;;;;;5.82;5.53;;;;;;;38.20;29.68;99187.97;5072889;28;20269;-73
2022/08/07 08:10:20;;;;;;;5.70;5.40;;;;;;;38.31;28.85;99182.47;5072642;28;20188;-73
2022/08/07 08:12:48;;;;;;;6.10;5.60;;;;;;;38.36;28.63;99191.25;5072619;28;20191;-72
2022/08/07 08:15:15;;;;;;;5.75;5.47;;;;;;;38.44;28.71;99180.97;5072400;28;20193;-72
2022/08/07 08:17:44;;;;;;;4.80;4.50;;;;;;;38.22;29.48;99182.84;5072117;28;20192;-72
2022/08/07 08:20:14;;;;;;;6.43;5.90;;;;;;;38.16;29.41;99181.59;5072198;28;20198;-72
2022/08/07 08:28:21;;;;;;;6.45;6.05;;;;;;;37.97;29.28;99178.25;5072282;28;20312;-72
2022/08/07 08:30:53;;;;;;;6.10;5.70;;;;;;;38.17;29.03;99182.38;5072164;28;20185;-72
2022/08/07 08:33:22;;;;;;;6.38;5.85;;;;;;;38.28;28.55;99181.28;5072499;28;20271;-72
2022/08/07 08:35:53;;;;;;;6.88;6.32;;;;;;;37.92;28.71;99181.38;5072078;28;20187;-73
2022/08/07 08:38:24;;;;;;;6.70;6.30;;;;;;;37.99;28.63;99182.22;5072543;28;20203;-73
2022/08/07 08:40:56;;;;;;;6.00;5.55;;;;;;;38.01;28.16;99182.66;5072155;28;20192;-72
2022/08/07 08:43:31;;;;;;;5.97;5.68;;;;;;;38.22;28.85;99174.50;5073307;28;20188;-72
2022/08/07 08:46:08;;;;;;;7.07;6.47;;;;;;;38.23;29.01;99165.00;5072208;28;20217;-72
2022/08/07 08:48:43;;;;;;;5.82;5.25;;;;;;;38.33;28.43;99172.56;5072011;28;20219;-72
2022/08/07 08:51:17;;;;;;;6.47;6.18;;;;;;;38.14;27.97;99166.50;5071797;28;20187;-72
2022/08/07 08:53:49;;;;;;;8.82;5.90;;;;;;;38.17;28.45;99166.53;5071822;28;20644;-72
2022/08/07 08:56:23;;;;;;;6.22;5.93;;;;;;;38.01;28.90;99168.78;5071722;28;20214;-72
2022/08/07 08:58:55;;;;;;;6.78;6.28;;;;;;;37.75;28.26;99166.19;5071758;28;20239;-72
2022/08/07 09:01:37;;;;;;;7.00;6.32;;;;;;;37.67;29.12;99156.19;5072625;28;20222;-72
2022/08/07 09:04:10;;;;;;;7.20;6.80;;;;;;;37.58;29.27;99161.25;5072017;28;20183;-72
2022/08/07 09:06:48;;;;;;;6.75;6.07;;;;;;;37.41;29.76;99159.09;5071794;28;20249;-72
2022/08/07 09:09:42;;;;;;;6.43;5.82;;;;;;;37.36;28.78;99164.19;5071621;28;20273;-72
2022/08/07 09:12:30;;;;;;;5.00;4.70;;;;;;;37.43;27.40;99159.50;5071896;28;20577;-72
2022/08/07 09:15:05;;;;;;;5.00;4.60;;;;;;;37.72;27.10;99149.53;5071608;28;20184;-72
2022/08/07 09:17:41;;;;;;;4.32;4.13;;;;;;;37.48;26.90;99167.50;5072471;28;20701;-72
2022/08/07 09:20:18;;;;;;;5.07;4.47;;;;;;;37.54;26.96;99154.88;5071601;28;20245;-72
2022/08/07 09:22:57;;;;;;;4.78;4.30;;;;;;;37.81;26.96;99148.00;5071772;28;20194;-72
2022/08/07 09:25:26;;;;;;;4.97;4.60;;;;;;;37.68;27.25;99143.91;5071380;28;20188;-72
2022/08/07 09:28:03;;;;;;;5.10;4.70;;;;;;;37.51;27.41;99149.31;5071578;28;20233;-72
2022/08/07 09:30:46;;;;;;;5.13;4.90;;;;;;;37.02;28.43;99146.78;5071426;28;20195;-72
2022/08/07 09:33:24;;;;;;;5.03;4.72;;;;;;;36.73;28.96;99142.91;5072060;28;20237;-73
2022/08/07 09:35:58;;;;;;;8.38;4.13;;;;;;;36.63;28.38;99143.50;5071511;28;20219;-72
2022/08/07 09:38:36;;;;;;;3.85;3.65;;;;;;;36.49;27.81;99148.88;5072729;28;20245;-72
2022/08/07 09:41:13;;;;;;;4.00;3.72;;;;;;;36.28;27.10;99147.78;5071930;28;20195;-72
2022/08/07 09:44:02;;;;;;;4.30;4.10;;;;;;;35.82;29.13;99137.97;5071561;28;20187;-72
2022/08/07 09:46:41;;;;;;;4.45;4.22;;;;;;;35.21;29.45;99140.81;5071406;28;20188;-72
2022/08/07 09:49:23;;;;;;;4.70;4.40;;;;;;;34.81;30.49;99139.63;5072063;28;20709;-73
2022/08/07 09:52:00;;;;;;;5.22;4.93;;;;;;;34.74;31.15;99129.22;5071783;28;20317;-73
2022/08/07 09:54:36;;;;;;;4.28;4.00;;;;;;;34.79;30.02;99130.88;5072411;28;20249;-74
2022/08/07 09:57:46;;;;;;;4.40;4.00;;;;;;;34.96;30.08;99125.75;5071244;28;20649;-73
2022/08/07 10:00:20;;;;;;;4.40;4.20;;;;;;;35.12;30.32;99139.44;5035529;28;20192;-73
2022/08/07 10:03:10;;;;;;;3.80;3.58;;;;;;;35.33;29.32;99123.28;5072121;28;20188;-73
2022/08/07 10:06:04;;;;;;;5.38;4.05;;;;;;;35.53;28.67;99117.34;5071393;28;20188;-74
2022/08/07 10:09:10;;;;;;;3.97;3.70;;;;;;;35.91;28.33;99116.38;5069001;28;20224;-73
2022/08/07 10:12:05;;;;;;;3.85;3.65;;;;;;;35.83;28.85;99114.69;5062874;28;20721;-72
2022/08/07 10:14:56;;;;;;;4.20;4.00;;;;;;;36.22;28.12;99096.72;5071301;28;20214;-74
2022/08/07 10:17:47;;;;;;;4.10;3.88;;;;;;;36.34;28.20;99099.25;5071280;28;20663;-73
2022/08/07 10:20:21;;;;;;;3.80;3.60;;;;;;;36.59;27.02;99097.59;5071719;28;20245;-73
2022/08/07 10:23:10;;;;;;;3.80;3.70;;;;;;;36.76;27.12;99091.50;5071349;28;20234;-72
2022/08/07 10:25:53;;;;;;;3.83;3.63;;;;;;;36.78;26.07;99097.44;5071635;28;20611;-72
2022/08/07 10:28:38;;;;;;;3.90;3.60;;;;;;;36.55;26.71;99107.84;5071514;28;20212;-70
2022/08/07 10:31:22;;;;;;;4.00;3.70;;;;;;;36.77;26.09;99099.44;5071935;28;20185;-72
2022/08/07 10:34:05;;;;;;;3.33;3.10;;;;;;;36.77;26.80;99106.94;5071571;28;20184;-72
2022/08/07 10:36:47;;;;;;;3.63;3.42;;;;;;;36.90;25.58;99095.22;5073259;28;20187;-72
2022/08/07 10:39:34;;;;;;;3.90;3.70;;;;;;;36.86;25.61;99083.31;5075203;28;20192;-72
2022/08/07 10:42:11;;;;;;;3.30;3.10;;;;;;;36.90;25.84;99092.44;5074858;28;20198;-72
2022/08/07 10:44:45;;;;;;;4.38;4.18;;;;;;;36.62;25.32;99086.56;5075181;28;20184;-72
2022/08/07 10:47:33;;;;;;;3.83;3.50;;;;;;;36.55;25.44;99091.22;5074816;28;20193;-72
2022/08/07 10:50:08;;;;;;;3.55;3.25;;;;;;;36.61;26.06;99095.25;5075306;28;20269;-72
2022/08/07 10:52:40;;;;;;;3.20;3.10;;;;;;;36.58;24.96;99098.78;5074718;28;20179;-72
2022/08/07 10:55:14;;;;;;;3.05;2.95;;;;;;;36.61;25.74;99084.16;5075353;28;20192;-72
2022/08/07 10:57:50;;;;;;;3.28;3.17;;;;;;;36.74;25.28;99088.28;5074049;28;20741;-72
2022/08/07 11:00:18;;;;;;;3.30;3.10;;;;;;;36.78;24.84;99084.41;5075297;28;20325;-72
2022/08/07 11:02:56;;;;;;;2.97;2.88;;;;;;;36.73;25.11;99086.72;5074168;28;20221;-72
2022/08/07 11:05:41;;;;;;;3.25;3.00;;;;;;;36.70;25.25;99082.72;5074525;28;20605;-74
2022/08/07 11:08:16;;;;;;;3.30;3.20;;;;;;;36.87;24.58;99087.66;5074279;28;20212;-73
2022/08/07 11:10:47;;;;;;;4.22;3.00;;;;;;;36.97;24.08;99075.09;5074182;28;20248;-73
2022/08/07 11:13:19;;;;;;;2.53;2.33;;;;;;;36.91;23.89;99082.19;5075074;28;20188;-73
2022/08/07 11:15:49;;;;;;;3.00;2.90;;;;;;;36.90;24.69;99072.25;5073811;28;20648;-73
2022/08/07 11:18:21;;;;;;;2.83;2.72;;;;;;;36.81;25.06;99075.34;5073742;28;20619;-72
2022/08/07 11:20:56;;;;;;;2.92;2.83;;;;;;;36.67;25.51;99066.06;5074072;28;20261;-73
2022/08/07 11:23:30;;;;;;;3.33;3.13;;;;;;;36.77;25.62;99065.41;5074145;28;20275;-72
2022/08/07 11:26:05;;;;;;;3.17;2.97;;;;;;;36.95;25.54;99066.41;5073817;28;20603;-72
2022/08/07 11:28:38;;;;;;;3.33;3.17;;;;;;;36.74;25.44;99060.59;5074178;28;20272;-72
2022/08/07 11:31:10;;;;;;;3.35;3.00;;;;;;;36.49;25.42;99065.03;5074581;28;20188;-72
2022/08/07 11:33:44;;;;;;;3.30;3.20;;;;;;;36.19;25.33;99062.28;5073549;28;20188;-73
2022/08/07 11:36:26;;;;;;;4.03;3.83;;;;;;;35.90;25.95;99053.97;5073391;28;20237;-72
2022/08/07 11:39:05;;;;;;;3.17;3.08;;;;;;;35.90;27.02;99048.44;5073454;28;20196;-72
2022/08/07 11:41:40;;;;;;;5.38;5.15;;;;;;;35.88;25.58;99059.09;5073711;28;20541;-73
2022/08/07 11:44:13;;;;;;;3.58;3.38;;;;;;;36.01;25.20;99054.91;5074396;28;20249;-73
2022/08/07 11:46:49;;;;;;;2.88;2.78;;;;;;;36.05;24.93;99050.22;5072851;28;20662;-72
2022/08/07 11:49:25;;;;;;;3.50;3.30;;;;;;;36.07;25.09;99045.09;5072834;28;20265;-72
2022/08/07 11:52:08;;;;;;;3.35;3.15;;;;;;;36.04;24.85;99045.84;5073952;28;20621;-72
2022/08/07 11:54:45;;;;;;;3.53;3.33;;;;;;;35.98;24.29;99039.88;5074210;28;20271;-73
2022/08/07 11:57:21;;;;;;;3.70;3.55;;;;;;;35.89;24.72;99025.50;5073242;28;20325;-72
2022/08/07 12:00:02;;;;;;;3.70;3.40;;;;;;;36.11;24.76;99037.66;5073269;28;20566;-72